createdAt,value
2022-09-28T00:00:20.762Z,9.10
2022-09-28T00:02:48.412Z,9.06
2022-09-28T00:05:15.147Z,8.58
2022-09-28T00:07:42.039Z,8.86
2022-09-28T00:10:08.679Z,8.93
2022-09-28T00:12:35.160Z,8.98
2022-09-28T00:15:02.528Z,8.57
2022-09-28T00:17:29.331Z,8.74
2022-09-28T00:19:56.720Z,8.68
2022-09-28T00:22:23.260Z,8.62
2022-09-28T00:24:50.059Z,8.63
2022-09-28T00:27:18.008Z,8.60
2022-09-28T00:29:44.615Z,8.72
2022-09-28T00:32:11.722Z,8.85
2022-09-28T00:34:40.634Z,8.58
2022-09-28T00:37:10.569Z,8.56
2022-09-28T00:39:38.410Z,8.62
2022-09-28T00:42:11.127Z,8.71
2022-09-28T00:44:46.379Z,8.59
2022-09-28T00:47:12.910Z,8.79
2022-09-28T00:49:45.239Z,8.78
2022-09-28T00:52:14.387Z,8.59
2022-09-28T00:54:43.244Z,8.55
2022-09-28T00:57:09.818Z,8.39
2022-09-28T00:59:36.336Z,8.46
2022-09-28T01:02:03.763Z,8.60
2022-09-28T01:04:31.019Z,8.57
2022-09-28T01:06:58.691Z,8.73
2022-09-28T01:09:25.870Z,8.65
2022-09-28T01:11:52.373Z,8.70
2022-09-28T01:14:19.510Z,8.77
2022-09-28T01:16:51.995Z,8.73
2022-09-28T01:19:33.958Z,8.46
2022-09-28T01:22:00.455Z,8.45
2022-09-28T01:24:40.901Z,8.45
2022-09-28T01:27:28.092Z,8.55
2022-09-28T01:30:01.656Z,8.44
2022-09-28T01:32:40.312Z,8.35
2022-09-28T01:35:06.833Z,8.43
2022-09-28T01:37:44.150Z,8.59
2022-09-28T01:40:11.988Z,8.49
2022-09-28T01:42:39.631Z,8.43
2022-09-28T01:45:09.861Z,8.47
2022-09-28T01:47:38.406Z,8.65
2022-09-28T01:50:07.283Z,8.38
2022-09-28T01:52:46.734Z,8.27
2022-09-28T01:55:18.584Z,8.09
2022-09-28T01:57:48.695Z,8.17
2022-09-28T02:00:16.091Z,8.22
2022-09-28T02:02:48.438Z,8.26
2022-09-28T02:05:24.095Z,8.16
2022-09-28T02:07:56.646Z,8.41
2022-09-28T02:10:24.764Z,8.45
2022-09-28T02:13:12.275Z,8.13
2022-09-28T02:15:38.973Z,8.48
2022-09-28T02:18:05.755Z,8.20
2022-09-28T02:20:34.366Z,8.08
2022-09-28T02:23:02.758Z,8.29
2022-09-28T02:25:35.783Z,8.41
2022-09-28T02:28:04.632Z,8.40
2022-09-28T02:30:31.927Z,8.36
2022-09-28T02:33:04.124Z,8.30
2022-09-28T02:35:30.656Z,8.37
2022-09-28T02:37:57.573Z,8.18
2022-09-28T02:40:26.545Z,8.18
2022-09-28T02:43:12.787Z,8.13
2022-09-28T02:45:42.346Z,8.26
2022-09-28T02:48:14.774Z,8.15
2022-09-28T02:50:56.258Z,8.26
2022-09-28T02:53:41.582Z,8.35
2022-09-28T02:56:10.827Z,8.13
2022-09-28T02:58:55.913Z,8.54
2022-09-28T03:01:38.933Z,8.09
2022-09-28T03:04:16.910Z,8.55
2022-09-28T03:06:48.595Z,8.30
2022-09-28T03:09:20.359Z,8.51
2022-09-28T03:11:53.506Z,8.64
2022-09-28T03:14:20.196Z,8.45
2022-09-28T03:16:46.706Z,8.42
2022-09-28T03:19:13.407Z,7.92
2022-09-28T03:21:40.187Z,8.33
2022-09-28T03:24:06.894Z,8.62
2022-09-28T03:26:33.624Z,8.42
2022-09-28T03:29:00.229Z,8.63
2022-09-28T03:31:26.790Z,8.67
2022-09-28T03:33:53.332Z,8.24
2022-09-28T03:36:19.973Z,8.37
2022-09-28T03:38:46.480Z,8.61
2022-09-28T03:41:12.984Z,8.50
2022-09-28T03:43:39.467Z,8.68
2022-09-28T03:46:06.133Z,8.05
2022-09-28T03:48:33.934Z,8.17
2022-09-28T03:51:01.627Z,8.56
2022-09-28T03:53:29.624Z,8.71
2022-09-28T03:55:56.587Z,8.50
2022-09-28T03:58:23.079Z,8.78
2022-09-28T04:00:50.189Z,8.73
2022-09-28T04:03:16.830Z,8.52
2022-09-28T04:05:50.550Z,8.53
2022-09-28T04:08:17.407Z,8.51
2022-09-28T04:10:43.907Z,8.24
2022-09-28T04:13:10.402Z,8.50
2022-09-28T04:15:38.460Z,8.77
2022-09-28T04:18:09.259Z,8.79
2022-09-28T04:20:35.787Z,8.85
2022-09-28T04:23:02.314Z,8.88
2022-09-28T04:25:28.902Z,8.86
2022-09-28T04:28:13.900Z,8.83
2022-09-28T04:30:40.729Z,8.63
2022-09-28T04:33:07.208Z,8.82
2022-09-28T04:35:33.723Z,8.64
2022-09-28T04:38:00.215Z,8.81
2022-09-28T04:40:26.708Z,8.70
2022-09-28T04:42:56.168Z,8.76
2022-09-28T04:45:23.400Z,8.62
2022-09-28T04:47:49.955Z,8.68
2022-09-28T04:50:16.747Z,8.62
2022-09-28T04:52:43.288Z,8.50
2022-09-28T04:55:11.994Z,8.49
2022-09-28T04:57:38.499Z,8.56
2022-09-28T05:00:05.513Z,8.51
2022-09-28T05:02:32.349Z,8.58
2022-09-28T05:04:59.036Z,8.57
2022-09-28T05:07:26.275Z,8.31
2022-09-28T05:09:53.197Z,8.13
2022-09-28T05:12:19.638Z,8.32
2022-09-28T05:14:46.230Z,8.20
2022-09-28T05:17:12.723Z,8.14
2022-09-28T05:19:39.247Z,8.05
2022-09-28T05:22:07.826Z,8.21
2022-09-28T05:24:34.264Z,8.32
2022-09-28T05:27:00.794Z,8.50
2022-09-28T05:29:31.914Z,8.27
2022-09-28T05:32:01.461Z,8.32
2022-09-28T05:34:28.244Z,8.31
2022-09-28T05:36:54.832Z,8.35
2022-09-28T05:39:21.403Z,8.20
2022-09-28T05:41:48.216Z,8.20
2022-09-28T05:44:14.785Z,8.26
2022-09-28T05:46:41.418Z,8.38
2022-09-28T05:49:07.862Z,8.34
2022-09-28T05:51:34.341Z,8.33
2022-09-28T05:54:05.640Z,8.53
2022-09-28T05:56:32.980Z,8.61
2022-09-28T05:58:59.540Z,8.64
2022-09-28T06:01:26.300Z,8.67
2022-09-28T06:03:52.878Z,8.64
2022-09-28T06:06:19.380Z,8.69
2022-09-28T06:08:48.301Z,8.93
2022-09-28T06:11:14.738Z,8.96
2022-09-28T06:13:41.208Z,8.86
2022-09-28T06:16:08.213Z,8.88
2022-09-28T06:18:35.183Z,8.82
2022-09-28T06:21:02.768Z,8.95
2022-09-28T06:23:29.249Z,8.80
2022-09-28T06:25:55.796Z,8.95
2022-09-28T06:28:22.331Z,9.08
2022-09-28T06:30:48.921Z,8.86
2022-09-28T06:33:16.247Z,9.02
2022-09-28T06:35:42.804Z,9.06
2022-09-28T06:38:09.408Z,9.05
2022-09-28T06:40:36.346Z,8.79
2022-09-28T06:43:09.784Z,8.96
2022-09-28T06:45:36.898Z,9.11
2022-09-28T06:48:04.085Z,9.20
2022-09-28T06:50:35.903Z,9.06
2022-09-28T06:53:02.370Z,9.31
2022-09-28T06:55:28.974Z,8.88
2022-09-28T06:57:59.296Z,9.02
2022-09-28T07:00:27.167Z,8.92
2022-09-28T07:02:53.764Z,8.99
2022-09-28T07:05:27.071Z,9.17
2022-09-28T07:07:56.975Z,9.09
2022-09-28T07:10:27.843Z,9.22
2022-09-28T07:12:55.308Z,9.28
2022-09-28T07:15:22.163Z,9.34
2022-09-28T07:18:00.305Z,9.43
2022-09-28T07:20:28.820Z,9.44
2022-09-28T07:22:56.033Z,9.31
2022-09-28T07:25:24.064Z,9.37
2022-09-28T07:27:50.620Z,9.36
2022-09-28T07:30:17.200Z,9.38
2022-09-28T07:32:48.396Z,9.53
2022-09-28T07:35:15.679Z,9.46
2022-09-28T07:37:42.163Z,9.32
2022-09-28T07:40:28.017Z,9.30
2022-09-28T07:42:54.731Z,9.40
2022-09-28T07:45:23.772Z,9.25
2022-09-28T07:47:50.790Z,9.46
2022-09-28T07:50:18.002Z,9.37
2022-09-28T07:52:45.836Z,9.62
2022-09-28T07:55:12.564Z,9.61
2022-09-28T07:57:39.943Z,9.46
2022-09-28T08:00:08.418Z,9.68
2022-09-28T08:02:36.948Z,9.69
2022-09-28T08:05:03.613Z,9.80
2022-09-28T08:07:30.219Z,9.79
2022-09-28T08:09:56.818Z,9.76
2022-09-28T08:12:23.543Z,9.73
2022-09-28T08:14:52.188Z,9.72
2022-09-28T08:17:18.894Z,9.80
2022-09-28T08:20:03.723Z,9.89
2022-09-28T08:22:32.228Z,9.83
2022-09-28T08:24:59.319Z,9.89
2022-09-28T08:27:25.814Z,9.89
2022-09-28T08:29:52.269Z,10.20
2022-09-28T08:32:19.487Z,10.20
2022-09-28T08:34:46.018Z,10.15
2022-09-28T08:37:12.552Z,10.19
2022-09-28T08:39:39.233Z,10.09
2022-09-28T08:42:41.139Z,10.35
2022-09-28T08:45:19.339Z,10.27
2022-09-28T08:48:11.993Z,10.05
2022-09-28T08:50:53.395Z,10.16
2022-09-28T08:53:38.663Z,9.87
2022-09-28T08:56:07.509Z,10.35
2022-09-28T08:58:37.736Z,10.54
2022-09-28T09:01:06.633Z,10.23
2022-09-28T09:03:35.847Z,10.45
2022-09-28T09:06:21.623Z,10.56
2022-09-28T09:08:57.471Z,10.43
2022-09-28T09:11:29.842Z,10.35
2022-09-28T09:14:05.595Z,10.65
2022-09-28T09:16:49.683Z,10.54
2022-09-28T09:19:20.310Z,10.40
2022-09-28T09:21:46.799Z,10.40
2022-09-28T09:24:16.413Z,10.55
2022-09-28T09:26:43.435Z,10.48
2022-09-28T09:29:09.958Z,10.61
2022-09-28T09:31:38.168Z,10.59
2022-09-28T09:34:23.583Z,10.14
2022-09-28T09:37:01.988Z,10.49
2022-09-28T09:39:28.395Z,10.48
2022-09-28T09:42:04.046Z,10.82
2022-09-28T09:44:44.768Z,11.04
2022-09-28T09:47:14.843Z,11.24
2022-09-28T09:49:50.333Z,10.50
2022-09-28T09:52:38.814Z,11.11
2022-09-28T09:55:15.336Z,11.30
2022-09-28T09:57:44.624Z,11.26
2022-09-28T10:00:12.896Z,11.31
2022-09-28T10:02:39.548Z,11.35
2022-09-28T10:05:06.057Z,11.33
2022-09-28T10:07:32.539Z,11.32
2022-09-28T10:10:01.443Z,11.56
2022-09-28T10:12:28.766Z,11.33
2022-09-28T10:14:56.003Z,11.27
2022-09-28T10:17:27.192Z,11.43
2022-09-28T10:19:54.955Z,11.67
2022-09-28T10:22:23.129Z,11.67
2022-09-28T10:24:51.164Z,11.43
2022-09-28T10:27:19.690Z,11.40
2022-09-28T10:29:50.970Z,11.37
2022-09-28T10:32:28.300Z,11.26
2022-09-28T10:35:11.412Z,11.53
2022-09-28T10:37:49.289Z,11.43
2022-09-28T10:40:43.455Z,11.28
2022-09-28T10:43:25.465Z,11.55
2022-09-28T10:46:13.939Z,11.52
2022-09-28T10:48:49.824Z,11.64
2022-09-28T10:51:16.528Z,11.68
2022-09-28T10:53:57.207Z,12.11
2022-09-28T10:56:27.063Z,11.60
2022-09-28T10:58:53.725Z,11.62
2022-09-28T11:01:23.857Z,12.07
2022-09-28T11:04:11.800Z,11.76
2022-09-28T11:06:39.321Z,11.66
2022-09-28T11:09:16.104Z,12.14
2022-09-28T11:11:43.171Z,12.01
2022-09-28T11:14:26.279Z,11.79
2022-09-28T11:17:11.760Z,11.79
2022-09-28T11:19:38.347Z,12.08
2022-09-28T11:22:20.177Z,12.23
2022-09-28T11:24:47.340Z,12.38
2022-09-28T11:27:25.341Z,12.52
2022-09-28T11:29:58.847Z,12.04
2022-09-28T11:32:28.946Z,12.19
2022-09-28T11:35:00.009Z,12.41
2022-09-28T11:37:46.863Z,11.95
2022-09-28T11:40:13.359Z,12.45
2022-09-28T11:42:48.097Z,12.30
2022-09-28T11:45:40.855Z,11.87
2022-09-28T11:48:11.147Z,12.40
2022-09-28T11:50:50.018Z,12.38
2022-09-28T11:53:20.390Z,13.13
2022-09-28T11:55:50.387Z,13.94
2022-09-28T11:58:25.924Z,13.68
2022-09-28T12:01:06.864Z,13.42
2022-09-28T12:03:40.891Z,13.69
2022-09-28T12:06:13.708Z,13.52
2022-09-28T12:08:43.456Z,13.46
2022-09-28T12:11:22.241Z,12.88
2022-09-28T12:13:52.859Z,12.97
2022-09-28T12:19:25.761Z,12.29
2022-09-28T12:21:56.856Z,12.50
2022-09-28T12:24:28.649Z,12.42
2022-09-28T12:26:59.250Z,12.42
2022-09-28T12:29:28.860Z,12.76
2022-09-28T12:32:09.815Z,13.08
2022-09-28T12:34:36.512Z,12.82
2022-09-28T12:37:02.920Z,12.70
2022-09-28T12:39:53.614Z,12.55
2022-09-28T12:42:41.349Z,12.53
2022-09-28T12:45:20.431Z,12.65
2022-09-28T12:47:58.121Z,12.60
2022-09-28T12:50:44.010Z,12.76
2022-09-28T12:53:13.927Z,12.48
2022-09-28T12:55:57.609Z,12.66
2022-09-28T12:58:26.803Z,12.74
2022-09-28T13:01:04.575Z,12.64
2022-09-28T13:03:42.544Z,12.23
2022-09-28T13:06:15.362Z,12.19
2022-09-28T13:09:01.382Z,12.41
2022-09-28T13:11:42.967Z,11.94
2022-09-28T13:14:09.863Z,11.47
2022-09-28T13:16:36.391Z,11.31
2022-09-28T13:19:20.250Z,10.78
2022-09-28T13:22:07.099Z,10.90
2022-09-28T13:24:37.180Z,10.75
2022-09-28T13:27:07.592Z,10.77
2022-09-28T13:29:34.900Z,10.77
2022-09-28T13:32:03.201Z,10.62
2022-09-28T13:34:33.418Z,10.78
2022-09-28T13:37:19.848Z,10.64
2022-09-28T13:39:46.392Z,10.52
2022-09-28T13:42:22.912Z,10.57
2022-09-28T13:45:09.551Z,10.29
2022-09-28T13:47:54.511Z,10.42
2022-09-28T13:50:40.004Z,10.35
2022-09-28T13:53:25.126Z,10.36
2022-09-28T13:56:03.538Z,10.14
2022-09-28T13:58:33.515Z,9.82
2022-09-28T14:01:04.840Z,9.93
2022-09-28T14:03:50.211Z,9.94
2022-09-28T14:06:25.636Z,9.82
2022-09-28T14:08:52.310Z,9.94
2022-09-28T14:11:40.597Z,9.50
2022-09-28T14:14:14.273Z,9.06
2022-09-28T14:16:41.620Z,9.51
2022-09-28T14:19:12.725Z,9.54
2022-09-28T14:21:42.295Z,9.41
2022-09-28T14:24:27.396Z,9.49
2022-09-28T14:27:12.793Z,9.44
2022-09-28T14:29:39.528Z,9.30
2022-09-28T14:32:09.089Z,9.46
2022-09-28T14:34:42.082Z,9.50
2022-09-28T14:37:50.512Z,9.68
2022-09-28T14:40:52.486Z,9.55
2022-09-28T14:43:25.006Z,9.81
2022-09-28T14:46:11.609Z,9.31
2022-09-28T14:48:43.934Z,9.40
2022-09-28T14:51:26.273Z,9.61
2022-09-28T14:53:53.406Z,9.65
2022-09-28T14:56:20.530Z,9.61
2022-09-28T14:58:51.911Z,9.59
2022-09-28T15:01:20.359Z,9.54
2022-09-28T15:03:48.352Z,8.95
2022-09-28T15:06:16.379Z,8.89
2022-09-28T15:08:42.900Z,8.92
2022-09-28T15:11:18.074Z,8.87
2022-09-28T15:13:44.610Z,9.34
2022-09-28T15:16:13.223Z,9.39
2022-09-28T15:18:51.766Z,9.25
2022-09-28T15:21:18.917Z,9.06
2022-09-28T15:23:45.727Z,9.09
2022-09-28T15:26:44.427Z,9.18
2022-09-28T15:29:17.372Z,9.02
2022-09-28T15:31:44.862Z,9.06
2022-09-28T15:34:50.114Z,8.99
2022-09-28T15:37:29.040Z,8.96
2022-09-28T15:39:57.356Z,9.08
2022-09-28T15:42:23.952Z,9.26
2022-09-28T15:45:02.345Z,9.07
2022-09-28T15:47:29.836Z,9.14
2022-09-28T15:49:58.431Z,9.45
2022-09-28T15:52:31.135Z,9.48
2022-09-28T15:54:57.773Z,9.54
2022-09-28T15:57:38.590Z,9.42
2022-09-28T16:00:07.355Z,9.59
2022-09-28T16:02:35.251Z,9.35
2022-09-28T16:05:02.220Z,9.21
2022-09-28T16:07:33.219Z,9.27
2022-09-28T16:10:11.612Z,9.48
2022-09-28T16:12:38.131Z,9.34
2022-09-28T16:15:06.648Z,9.24
2022-09-28T16:17:35.102Z,9.37
2022-09-28T16:20:03.741Z,9.12
2022-09-28T16:22:32.733Z,9.29
2022-09-28T16:25:00.865Z,9.03
2022-09-28T16:27:30.154Z,9.39
2022-09-28T16:30:15.477Z,9.39
2022-09-28T16:32:50.334Z,9.34
2022-09-28T16:35:17.328Z,9.39
2022-09-28T16:37:45.256Z,9.34
2022-09-28T16:40:12.643Z,9.36
2022-09-28T16:42:40.099Z,9.52
2022-09-28T16:45:07.775Z,9.61
2022-09-28T16:47:34.813Z,9.54
2022-09-28T16:50:03.911Z,9.42
2022-09-28T16:52:49.163Z,9.28
2022-09-28T16:55:38.882Z,9.30
2022-09-28T16:58:04.603Z,9.43
2022-09-28T17:00:31.862Z,8.98
2022-09-28T17:02:58.592Z,8.61
2022-09-28T17:05:25.499Z,8.63
2022-09-28T17:08:02.093Z,9.01
2022-09-28T17:10:50.026Z,9.03
2022-09-28T17:13:31.513Z,9.14
2022-09-28T17:15:58.675Z,9.22
2022-09-28T17:18:25.805Z,9.20
2022-09-28T17:20:55.027Z,9.16
2022-09-28T17:23:21.522Z,9.20
2022-09-28T17:25:48.088Z,8.94
2022-09-28T17:28:19.969Z,8.53
2022-09-28T17:30:46.666Z,8.50
2022-09-28T17:33:13.380Z,8.61
2022-09-28T17:35:40.464Z,8.64
2022-09-28T17:38:07.006Z,8.88
2022-09-28T17:40:33.668Z,8.67
2022-09-28T17:43:00.563Z,8.89
2022-09-28T17:45:28.387Z,8.82
2022-09-28T17:47:55.532Z,8.63
2022-09-28T17:50:23.980Z,8.55
2022-09-28T17:52:52.302Z,8.80
2022-09-28T17:55:19.920Z,8.86
2022-09-28T17:57:46.495Z,8.84
2022-09-28T18:00:13.832Z,8.80
2022-09-28T18:02:40.969Z,9.09
2022-09-28T18:05:07.737Z,9.18
2022-09-28T18:07:34.440Z,9.25
2022-09-28T18:10:00.962Z,9.30
2022-09-28T18:12:27.561Z,9.34
2022-09-28T18:14:54.124Z,9.32
2022-09-28T18:17:20.607Z,9.05
2022-09-28T18:19:47.086Z,9.30
2022-09-28T18:22:13.663Z,9.34
2022-09-28T18:24:40.331Z,9.31
2022-09-28T18:27:06.781Z,9.25
2022-09-28T18:29:33.721Z,9.07
2022-09-28T18:32:00.473Z,8.85
2022-09-28T18:34:27.022Z,8.74
2022-09-28T18:36:53.819Z,8.68
2022-09-28T18:39:20.535Z,8.86
2022-09-28T18:41:47.210Z,8.60
2022-09-28T18:44:13.684Z,8.84
2022-09-28T18:46:41.852Z,8.85
2022-09-28T18:49:08.474Z,8.82
2022-09-28T18:51:35.030Z,8.74
2022-09-28T18:54:07.235Z,8.70
2022-09-28T18:56:35.282Z,8.67
2022-09-28T18:59:01.827Z,8.90
2022-09-28T19:01:30.447Z,8.80
2022-09-28T19:04:01.800Z,8.77
2022-09-28T19:06:28.886Z,8.87
2022-09-28T19:08:55.883Z,8.84
2022-09-28T19:11:22.711Z,8.93
2022-09-28T19:13:49.212Z,8.72
2022-09-28T19:16:17.249Z,8.57
2022-09-28T19:18:44.069Z,8.63
2022-09-28T19:21:11.804Z,8.61
2022-09-28T19:23:39.016Z,8.47
2022-09-28T19:26:11.523Z,8.40
2022-09-28T19:28:38.043Z,8.47
2022-09-28T19:31:06.027Z,8.47
2022-09-28T19:33:32.877Z,8.63
2022-09-28T19:36:01.125Z,8.52
2022-09-28T19:38:28.744Z,8.56
2022-09-28T19:40:56.033Z,8.55
2022-09-28T19:43:22.676Z,8.57
2022-09-28T19:45:52.334Z,8.66
2022-09-28T19:48:19.535Z,8.78
2022-09-28T19:50:54.219Z,8.53
2022-09-28T19:53:20.707Z,8.65
2022-09-28T19:55:50.706Z,8.76
2022-09-28T19:58:17.213Z,8.80
2022-09-28T20:00:43.679Z,8.60
2022-09-28T20:03:10.163Z,8.48
2022-09-28T20:05:38.788Z,8.44
2022-09-28T20:08:05.288Z,8.40
2022-09-28T20:10:31.922Z,8.49
2022-09-28T20:12:58.970Z,8.45
2022-09-28T20:15:25.536Z,8.46
2022-09-28T20:17:52.040Z,8.56
2022-09-28T20:20:18.561Z,8.34
2022-09-28T20:22:45.134Z,8.40
2022-09-28T20:25:11.663Z,8.38
2022-09-28T20:27:39.691Z,8.21
2022-09-28T20:30:07.004Z,8.51
2022-09-28T20:32:35.118Z,8.74
2022-09-28T20:35:01.621Z,8.66
2022-09-28T20:37:28.272Z,8.69
2022-09-28T20:39:55.250Z,8.63
2022-09-28T20:42:21.752Z,8.70
2022-09-28T20:44:48.308Z,8.69
2022-09-28T20:47:14.746Z,8.62
2022-09-28T20:49:41.498Z,8.70
2022-09-28T20:52:08.641Z,8.69
2022-09-28T20:54:35.152Z,8.76
2022-09-28T20:57:01.731Z,8.61
2022-09-28T20:59:28.675Z,8.30
2022-09-28T21:01:55.210Z,8.29
2022-09-28T21:04:21.726Z,8.45
2022-09-28T21:06:48.221Z,8.36
2022-09-28T21:09:14.773Z,8.13
2022-09-28T21:11:41.658Z,8.08
2022-09-28T21:14:10.135Z,8.27
2022-09-28T21:16:37.135Z,8.24
2022-09-28T21:19:03.633Z,8.41
2022-09-28T21:21:30.323Z,8.36
2022-09-28T21:23:57.483Z,8.38
2022-09-28T21:26:25.522Z,8.39
2022-09-28T21:28:53.477Z,8.35
2022-09-28T21:31:23.688Z,8.06
2022-09-28T21:33:54.189Z,7.95
2022-09-28T21:36:20.727Z,8.07
2022-09-28T21:38:47.472Z,8.39
2022-09-28T21:41:17.300Z,8.47
2022-09-28T21:43:45.339Z,8.54
2022-09-28T21:46:11.897Z,8.44
2022-09-28T21:48:38.527Z,8.51
2022-09-28T21:51:06.565Z,8.53
2022-09-28T21:53:34.195Z,8.65
2022-09-28T21:56:01.412Z,8.19
2022-09-28T21:58:29.210Z,8.36
2022-09-28T22:01:05.021Z,8.53
2022-09-28T22:03:32.536Z,8.36
2022-09-28T22:05:59.221Z,8.10
2022-09-28T22:08:26.274Z,8.28
2022-09-28T22:11:01.788Z,8.19
2022-09-28T22:13:32.200Z,8.26
2022-09-28T22:15:59.124Z,8.30
2022-09-28T22:18:29.459Z,8.23
2022-09-28T22:21:06.517Z,8.46
2022-09-28T22:23:33.891Z,8.37
2022-09-28T22:26:01.532Z,8.27
2022-09-28T22:28:28.858Z,8.13
2022-09-28T22:30:55.910Z,7.98
2022-09-28T22:33:22.549Z,8.10
2022-09-28T22:35:49.110Z,8.29
2022-09-28T22:38:15.726Z,8.41
2022-09-28T22:40:46.820Z,8.30
2022-09-28T22:43:13.424Z,8.44
2022-09-28T22:45:40.069Z,8.35
2022-09-28T22:48:07.156Z,8.26
2022-09-28T22:50:34.248Z,8.30
2022-09-28T22:53:01.905Z,8.42
2022-09-28T22:55:29.107Z,8.57
2022-09-28T22:57:55.734Z,8.64
2022-09-28T23:00:22.351Z,8.66
2022-09-28T23:02:48.951Z,8.68
2022-09-28T23:05:17.036Z,8.72
2022-09-28T23:07:43.670Z,8.53
2022-09-28T23:10:10.179Z,8.58
2022-09-28T23:12:36.667Z,8.54
2022-09-28T23:15:03.283Z,8.59
2022-09-28T23:17:29.756Z,8.47
2022-09-28T23:19:56.252Z,8.61
2022-09-28T23:22:22.784Z,8.56
2022-09-28T23:24:49.375Z,8.71
2022-09-28T23:27:15.879Z,8.52
2022-09-28T23:29:46.785Z,8.35
2022-09-28T23:32:13.584Z,8.55
2022-09-28T23:34:40.358Z,8.60
2022-09-28T23:37:07.037Z,8.30
2022-09-28T23:39:33.527Z,8.34
2022-09-28T23:42:00.315Z,8.36
2022-09-28T23:44:31.312Z,8.36
2022-09-28T23:46:57.892Z,8.14
2022-09-28T23:49:24.436Z,8.33
2022-09-28T23:51:51.069Z,8.62
2022-09-28T23:54:18.173Z,8.73
2022-09-28T23:56:44.655Z,8.76
2022-09-28T23:59:11.153Z,8.76
